sensor_id;sensor_type;location;lat;lon;timestamp;P1;durP1;ratioP1;P2;durP2;ratioP2
17595;SDS011;8916;47.086;15.920;2023-01-05T00:01:00;31.40;;;19.42;;
17595;SDS011;8916;47.086;15.920;2023-01-05T00:03:31;36.00;;;19.38;;
17595;SDS011;8916;47.086;15.920;2023-01-05T00:06:00;40.22;;;22.15;;
17595;SDS011;8916;47.086;15.920;2023-01-05T00:08:30;41.60;;;23.58;;
17595;SDS011;8916;47.086;15.920;2023-01-05T00:11:05;49.20;;;26.92;;
17595;SDS011;8916;47.086;15.920;2023-01-05T00:13:53;44.05;;;24.17;;
17595;SDS011;8916;47.086;15.920;2023-01-05T00:16:39;40.70;;;22.77;;
17595;SDS011;8916;47.086;15.920;2023-01-05T00:19:26;44.30;;;25.65;;
17595;SDS011;8916;47.086;15.920;2023-01-05T00:22:14;45.30;;;24.10;;
17595;SDS011;8916;47.086;15.920;2023-01-05T00:25:02;42.95;;;25.00;;
17595;SDS011;8916;47.086;15.920;2023-01-05T00:27:40;40.55;;;24.50;;
17595;SDS011;8916;47.086;15.920;2023-01-05T00:30:12;46.67;;;27.65;;
17595;SDS011;8916;47.086;15.920;2023-01-05T00:32:44;50.40;;;26.88;;
17595;SDS011;8916;47.086;15.920;2023-01-05T00:35:14;46.58;;;26.98;;
17595;SDS011;8916;47.086;15.920;2023-01-05T00:37:44;41.17;;;25.83;;
17595;SDS011;8916;47.086;15.920;2023-01-05T00:40:15;48.03;;;27.58;;
17595;SDS011;8916;47.086;15.920;2023-01-05T00:42:48;43.10;;;25.40;;
17595;SDS011;8916;47.086;15.920;2023-01-05T00:45:18;41.55;;;24.38;;
17595;SDS011;8916;47.086;15.920;2023-01-05T00:47:48;42.53;;;23.23;;
17595;SDS011;8916;47.086;15.920;2023-01-05T00:50:20;41.53;;;23.25;;
17595;SDS011;8916;47.086;15.920;2023-01-05T00:52:50;35.60;;;22.23;;
17595;SDS011;8916;47.086;15.920;2023-01-05T00:55:19;40.35;;;23.10;;
17595;SDS011;8916;47.086;15.920;2023-01-05T00:57:50;41.42;;;22.67;;
17595;SDS011;8916;47.086;15.920;2023-01-05T01:00:19;35.08;;;21.42;;
17595;SDS011;8916;47.086;15.920;2023-01-05T01:02:49;38.55;;;22.35;;
17595;SDS011;8916;47.086;15.920;2023-01-05T01:05:20;36.20;;;21.52;;
17595;SDS011;8916;47.086;15.920;2023-01-05T01:07:49;33.40;;;19.88;;
17595;SDS011;8916;47.086;15.920;2023-01-05T01:10:18;29.48;;;17.95;;
17595;SDS011;8916;47.086;15.920;2023-01-05T01:12:50;32.30;;;19.55;;
17595;SDS011;8916;47.086;15.920;2023-01-05T01:15:20;35.65;;;20.27;;
17595;SDS011;8916;47.086;15.920;2023-01-05T01:17:50;45.78;;;23.98;;
17595;SDS011;8916;47.086;15.920;2023-01-05T01:20:20;31.55;;;20.52;;
17595;SDS011;8916;47.086;15.920;2023-01-05T01:22:49;46.38;;;25.58;;
17595;SDS011;8916;47.086;15.920;2023-01-05T01:25:19;40.33;;;22.95;;
17595;SDS011;8916;47.086;15.920;2023-01-05T01:27:49;51.65;;;26.55;;
17595;SDS011;8916;47.086;15.920;2023-01-05T01:30:19;40.42;;;23.08;;
17595;SDS011;8916;47.086;15.920;2023-01-05T01:32:49;49.92;;;28.58;;
17595;SDS011;8916;47.086;15.920;2023-01-05T01:35:18;58.00;;;29.10;;
17595;SDS011;8916;47.086;15.920;2023-01-05T01:37:47;49.25;;;27.70;;
17595;SDS011;8916;47.086;15.920;2023-01-05T01:40:17;56.30;;;28.38;;
17595;SDS011;8916;47.086;15.920;2023-01-05T01:42:46;51.33;;;28.42;;
17595;SDS011;8916;47.086;15.920;2023-01-05T01:45:18;55.50;;;28.55;;
17595;SDS011;8916;47.086;15.920;2023-01-05T01:47:50;48.95;;;26.63;;
17595;SDS011;8916;47.086;15.920;2023-01-05T01:50:25;38.03;;;22.80;;
17595;SDS011;8916;47.086;15.920;2023-01-05T01:52:59;42.10;;;22.25;;
17595;SDS011;8916;47.086;15.920;2023-01-05T01:55:33;37.28;;;20.15;;
17595;SDS011;8916;47.086;15.920;2023-01-05T01:58:04;39.72;;;20.30;;
17595;SDS011;8916;47.086;15.920;2023-01-05T02:03:10;30.38;;;19.50;;
17595;SDS011;8916;47.086;15.920;2023-01-05T02:05:40;35.40;;;20.35;;
17595;SDS011;8916;47.086;15.920;2023-01-05T02:08:09;30.85;;;20.10;;
17595;SDS011;8916;47.086;15.920;2023-01-05T02:10:52;39.40;;;22.58;;
17595;SDS011;8916;47.086;15.920;2023-01-05T02:13:38;42.33;;;23.75;;
17595;SDS011;8916;47.086;15.920;2023-01-05T02:16:24;42.92;;;24.75;;
17595;SDS011;8916;47.086;15.920;2023-01-05T02:19:18;38.78;;;24.42;;
17595;SDS011;8916;47.086;15.920;2023-01-05T02:26:03;39.60;;;24.95;;
17595;SDS011;8916;47.086;15.920;2023-01-05T02:32:25;41.67;;;23.83;;
17595;SDS011;8916;47.086;15.920;2023-01-05T02:35:05;46.13;;;24.48;;
17595;SDS011;8916;47.086;15.920;2023-01-05T02:37:48;38.28;;;23.80;;
17595;SDS011;8916;47.086;15.920;2023-01-05T02:40:28;34.75;;;22.95;;
17595;SDS011;8916;47.086;15.920;2023-01-05T02:43:04;34.60;;;22.73;;
17595;SDS011;8916;47.086;15.920;2023-01-05T02:45:36;36.17;;;21.95;;
17595;SDS011;8916;47.086;15.920;2023-01-05T02:48:07;33.85;;;20.85;;
17595;SDS011;8916;47.086;15.920;2023-01-05T02:50:38;37.63;;;21.48;;
17595;SDS011;8916;47.086;15.920;2023-01-05T02:53:13;34.17;;;21.35;;
17595;SDS011;8916;47.086;15.920;2023-01-05T02:55:49;36.97;;;20.95;;
17595;SDS011;8916;47.086;15.920;2023-01-05T02:58:29;42.85;;;24.48;;
17595;SDS011;8916;47.086;15.920;2023-01-05T03:01:04;42.88;;;25.65;;
17595;SDS011;8916;47.086;15.920;2023-01-05T03:03:40;38.42;;;23.35;;
17595;SDS011;8916;47.086;15.920;2023-01-05T03:06:14;39.60;;;23.48;;
17595;SDS011;8916;47.086;15.920;2023-01-05T03:08:50;37.25;;;21.70;;
17595;SDS011;8916;47.086;15.920;2023-01-05T03:11:25;38.42;;;23.45;;
17595;SDS011;8916;47.086;15.920;2023-01-05T03:14:29;34.20;;;22.60;;
17595;SDS011;8916;47.086;15.920;2023-01-05T03:17:04;40.38;;;22.38;;
17595;SDS011;8916;47.086;15.920;2023-01-05T03:19:44;38.45;;;21.92;;
17595;SDS011;8916;47.086;15.920;2023-01-05T03:22:15;38.95;;;21.45;;
17595;SDS011;8916;47.086;15.920;2023-01-05T03:25:07;38.63;;;21.10;;
17595;SDS011;8916;47.086;15.920;2023-01-05T03:27:59;40.63;;;21.17;;
17595;SDS011;8916;47.086;15.920;2023-01-05T03:30:51;37.47;;;20.38;;
17595;SDS011;8916;47.086;15.920;2023-01-05T03:33:53;36.53;;;20.55;;
17595;SDS011;8916;47.086;15.920;2023-01-05T03:36:49;32.97;;;19.92;;
17595;SDS011;8916;47.086;15.920;2023-01-05T03:39:24;34.35;;;20.92;;
17595;SDS011;8916;47.086;15.920;2023-01-05T03:41:58;34.63;;;20.95;;
17595;SDS011;8916;47.086;15.920;2023-01-05T03:44:28;42.15;;;24.40;;
17595;SDS011;8916;47.086;15.920;2023-01-05T03:46:57;40.65;;;25.42;;
17595;SDS011;8916;47.086;15.920;2023-01-05T03:49:27;43.78;;;24.02;;
17595;SDS011;8916;47.086;15.920;2023-01-05T03:51:58;46.33;;;25.08;;
17595;SDS011;8916;47.086;15.920;2023-01-05T03:54:28;43.92;;;24.48;;
17595;SDS011;8916;47.086;15.920;2023-01-05T03:56:57;51.75;;;27.42;;
17595;SDS011;8916;47.086;15.920;2023-01-05T03:59:27;40.33;;;24.40;;
17595;SDS011;8916;47.086;15.920;2023-01-05T04:01:58;41.13;;;24.77;;
17595;SDS011;8916;47.086;15.920;2023-01-05T04:04:28;36.67;;;20.90;;
17595;SDS011;8916;47.086;15.920;2023-01-05T04:07:00;34.97;;;20.63;;
17595;SDS011;8916;47.086;15.920;2023-01-05T04:09:32;41.70;;;22.33;;
17595;SDS011;8916;47.086;15.920;2023-01-05T04:12:02;34.65;;;20.02;;
17595;SDS011;8916;47.086;15.920;2023-01-05T04:14:37;34.20;;;20.08;;
17595;SDS011;8916;47.086;15.920;2023-01-05T04:17:07;31.92;;;19.40;;
17595;SDS011;8916;47.086;15.920;2023-01-05T04:19:38;29.17;;;18.85;;
17595;SDS011;8916;47.086;15.920;2023-01-05T04:22:09;32.75;;;19.70;;
17595;SDS011;8916;47.086;15.920;2023-01-05T04:24:38;35.72;;;20.88;;
17595;SDS011;8916;47.086;15.920;2023-01-05T04:27:07;29.50;;;18.33;;
17595;SDS011;8916;47.086;15.920;2023-01-05T04:29:38;30.70;;;19.77;;
17595;SDS011;8916;47.086;15.920;2023-01-05T04:32:07;42.72;;;22.08;;
17595;SDS011;8916;47.086;15.920;2023-01-05T04:34:37;45.80;;;26.38;;
17595;SDS011;8916;47.086;15.920;2023-01-05T04:37:08;38.97;;;21.42;;
17595;SDS011;8916;47.086;15.920;2023-01-05T04:39:39;35.50;;;21.00;;
17595;SDS011;8916;47.086;15.920;2023-01-05T04:42:08;40.90;;;23.02;;
17595;SDS011;8916;47.086;15.920;2023-01-05T04:44:38;34.38;;;20.10;;
17595;SDS011;8916;47.086;15.920;2023-01-05T04:47:08;35.53;;;19.05;;
17595;SDS011;8916;47.086;15.920;2023-01-05T04:49:40;37.30;;;19.27;;
17595;SDS011;8916;47.086;15.920;2023-01-05T04:52:12;37.65;;;21.52;;
17595;SDS011;8916;47.086;15.920;2023-01-05T04:54:42;36.28;;;20.52;;
17595;SDS011;8916;47.086;15.920;2023-01-05T04:57:13;41.75;;;23.83;;
17595;SDS011;8916;47.086;15.920;2023-01-05T04:59:42;31.02;;;19.48;;
17595;SDS011;8916;47.086;15.920;2023-01-05T05:02:13;36.53;;;20.38;;
17595;SDS011;8916;47.086;15.920;2023-01-05T05:04:44;35.20;;;20.30;;
17595;SDS011;8916;47.086;15.920;2023-01-05T05:07:15;38.83;;;19.98;;
17595;SDS011;8916;47.086;15.920;2023-01-05T05:09:44;32.05;;;18.77;;
17595;SDS011;8916;47.086;15.920;2023-01-05T05:12:14;45.72;;;22.48;;
17595;SDS011;8916;47.086;15.920;2023-01-05T05:14:49;34.38;;;20.83;;
17595;SDS011;8916;47.086;15.920;2023-01-05T05:17:18;36.97;;;21.42;;
17595;SDS011;8916;47.086;15.920;2023-01-05T05:19:49;33.85;;;20.60;;
17595;SDS011;8916;47.086;15.920;2023-01-05T05:22:21;33.33;;;19.90;;
17595;SDS011;8916;47.086;15.920;2023-01-05T05:24:50;32.25;;;19.25;;
17595;SDS011;8916;47.086;15.920;2023-01-05T05:27:21;32.50;;;19.23;;
17595;SDS011;8916;47.086;15.920;2023-01-05T05:29:51;63.45;;;32.38;;
17595;SDS011;8916;47.086;15.920;2023-01-05T05:32:21;45.08;;;25.60;;
17595;SDS011;8916;47.086;15.920;2023-01-05T05:34:50;42.30;;;24.95;;
17595;SDS011;8916;47.086;15.920;2023-01-05T05:37:19;34.22;;;21.50;;
17595;SDS011;8916;47.086;15.920;2023-01-05T05:39:50;36.42;;;22.98;;
17595;SDS011;8916;47.086;15.920;2023-01-05T05:42:19;45.17;;;23.90;;
17595;SDS011;8916;47.086;15.920;2023-01-05T05:44:49;47.63;;;24.63;;
17595;SDS011;8916;47.086;15.920;2023-01-05T05:47:18;49.65;;;28.23;;
17595;SDS011;8916;47.086;15.920;2023-01-05T05:49:48;53.55;;;30.13;;
17595;SDS011;8916;47.086;15.920;2023-01-05T05:52:17;44.50;;;27.67;;
17595;SDS011;8916;47.086;15.920;2023-01-05T05:54:46;51.80;;;29.75;;
17595;SDS011;8916;47.086;15.920;2023-01-05T05:57:16;48.28;;;27.80;;
17595;SDS011;8916;47.086;15.920;2023-01-05T05:59:45;35.55;;;21.95;;
17595;SDS011;8916;47.086;15.920;2023-01-05T06:02:15;52.00;;;30.00;;
17595;SDS011;8916;47.086;15.920;2023-01-05T06:04:44;52.55;;;29.70;;
17595;SDS011;8916;47.086;15.920;2023-01-05T06:07:14;42.83;;;27.20;;
17595;SDS011;8916;47.086;15.920;2023-01-05T06:09:43;47.33;;;27.77;;
17595;SDS011;8916;47.086;15.920;2023-01-05T06:12:12;43.55;;;25.20;;
17595;SDS011;8916;47.086;15.920;2023-01-05T06:14:43;40.08;;;24.25;;
17595;SDS011;8916;47.086;15.920;2023-01-05T06:17:12;39.53;;;22.20;;
17595;SDS011;8916;47.086;15.920;2023-01-05T06:19:41;34.83;;;22.13;;
17595;SDS011;8916;47.086;15.920;2023-01-05T06:22:10;46.85;;;27.48;;
17595;SDS011;8916;47.086;15.920;2023-01-05T06:24:40;38.83;;;24.08;;
17595;SDS011;8916;47.086;15.920;2023-01-05T06:27:09;36.33;;;22.05;;
17595;SDS011;8916;47.086;15.920;2023-01-05T06:29:38;27.85;;;18.83;;
17595;SDS011;8916;47.086;15.920;2023-01-05T06:32:09;34.53;;;20.42;;
17595;SDS011;8916;47.086;15.920;2023-01-05T06:34:38;40.67;;;21.40;;
17595;SDS011;8916;47.086;15.920;2023-01-05T06:37:07;43.05;;;22.70;;
17595;SDS011;8916;47.086;15.920;2023-01-05T06:39:36;39.60;;;22.77;;
17595;SDS011;8916;47.086;15.920;2023-01-05T06:42:06;37.65;;;21.45;;
17595;SDS011;8916;47.086;15.920;2023-01-05T06:44:35;36.85;;;21.38;;
17595;SDS011;8916;47.086;15.920;2023-01-05T06:47:04;35.80;;;20.98;;
17595;SDS011;8916;47.086;15.920;2023-01-05T06:49:35;35.08;;;20.95;;
17595;SDS011;8916;47.086;15.920;2023-01-05T06:52:04;41.33;;;22.85;;
17595;SDS011;8916;47.086;15.920;2023-01-05T06:54:42;44.45;;;23.08;;
17595;SDS011;8916;47.086;15.920;2023-01-05T06:57:11;41.47;;;22.95;;
17595;SDS011;8916;47.086;15.920;2023-01-05T06:59:40;46.28;;;24.40;;
17595;SDS011;8916;47.086;15.920;2023-01-05T07:02:11;41.03;;;22.05;;
17595;SDS011;8916;47.086;15.920;2023-01-05T07:04:44;37.10;;;22.10;;
17595;SDS011;8916;47.086;15.920;2023-01-05T07:07:13;39.17;;;23.67;;
17595;SDS011;8916;47.086;15.920;2023-01-05T07:09:44;44.45;;;24.80;;
17595;SDS011;8916;47.086;15.920;2023-01-05T07:12:15;39.65;;;24.10;;
17595;SDS011;8916;47.086;15.920;2023-01-05T07:14:45;39.50;;;22.23;;
17595;SDS011;8916;47.086;15.920;2023-01-05T07:17:21;33.75;;;20.50;;
17595;SDS011;8916;47.086;15.920;2023-01-05T07:19:52;35.45;;;19.95;;
17595;SDS011;8916;47.086;15.920;2023-01-05T07:22:22;35.78;;;21.95;;
17595;SDS011;8916;47.086;15.920;2023-01-05T07:24:51;34.05;;;21.45;;
17595;SDS011;8916;47.086;15.920;2023-01-05T07:27:20;35.22;;;22.45;;
17595;SDS011;8916;47.086;15.920;2023-01-05T07:29:49;35.90;;;22.17;;
17595;SDS011;8916;47.086;15.920;2023-01-05T07:32:18;39.60;;;21.52;;
17595;SDS011;8916;47.086;15.920;2023-01-05T07:34:48;33.47;;;20.33;;
17595;SDS011;8916;47.086;15.920;2023-01-05T07:37:23;32.92;;;19.17;;
17595;SDS011;8916;47.086;15.920;2023-01-05T07:39:52;34.60;;;19.67;;
17595;SDS011;8916;47.086;15.920;2023-01-05T07:42:22;29.17;;;17.85;;
17595;SDS011;8916;47.086;15.920;2023-01-05T07:44:52;34.22;;;18.30;;
17595;SDS011;8916;47.086;15.920;2023-01-05T07:47:21;28.30;;;16.85;;
17595;SDS011;8916;47.086;15.920;2023-01-05T07:49:50;26.50;;;16.30;;
17595;SDS011;8916;47.086;15.920;2023-01-05T07:52:20;26.88;;;16.48;;
17595;SDS011;8916;47.086;15.920;2023-01-05T07:54:50;22.85;;;14.85;;
17595;SDS011;8916;47.086;15.920;2023-01-05T07:57:19;25.65;;;14.60;;
17595;SDS011;8916;47.086;15.920;2023-01-05T07:59:48;28.63;;;15.05;;
17595;SDS011;8916;47.086;15.920;2023-01-05T08:02:18;27.90;;;15.60;;
17595;SDS011;8916;47.086;15.920;2023-01-05T08:04:47;27.52;;;16.80;;
17595;SDS011;8916;47.086;15.920;2023-01-05T08:07:17;24.05;;;15.60;;
17595;SDS011;8916;47.086;15.920;2023-01-05T08:09:46;24.10;;;15.30;;
17595;SDS011;8916;47.086;15.920;2023-01-05T08:12:34;33.05;;;18.75;;
17595;SDS011;8916;47.086;15.920;2023-01-05T08:15:23;27.65;;;17.20;;
17595;SDS011;8916;47.086;15.920;2023-01-05T08:17:52;25.20;;;15.05;;
17595;SDS011;8916;47.086;15.920;2023-01-05T08:20:22;29.05;;;14.82;;
17595;SDS011;8916;47.086;15.920;2023-01-05T08:22:51;29.23;;;15.75;;
17595;SDS011;8916;47.086;15.920;2023-01-05T08:25:21;24.92;;;14.13;;
17595;SDS011;8916;47.086;15.920;2023-01-05T08:27:52;30.80;;;13.38;;
17595;SDS011;8916;47.086;15.920;2023-01-05T08:30:21;22.52;;;12.60;;
17595;SDS011;8916;47.086;15.920;2023-01-05T08:32:51;23.58;;;12.88;;
17595;SDS011;8916;47.086;15.920;2023-01-05T08:35:20;20.42;;;12.25;;
17595;SDS011;8916;47.086;15.920;2023-01-05T08:37:49;19.83;;;12.73;;
17595;SDS011;8916;47.086;15.920;2023-01-05T08:40:18;27.08;;;14.07;;
17595;SDS011;8916;47.086;15.920;2023-01-05T08:42:47;21.55;;;12.95;;
17595;SDS011;8916;47.086;15.920;2023-01-05T08:45:20;19.75;;;12.70;;
17595;SDS011;8916;47.086;15.920;2023-01-05T08:47:49;21.05;;;12.20;;
17595;SDS011;8916;47.086;15.920;2023-01-05T08:50:19;20.50;;;13.25;;
17595;SDS011;8916;47.086;15.920;2023-01-05T08:52:49;22.38;;;12.90;;
17595;SDS011;8916;47.086;15.920;2023-01-05T08:55:18;25.52;;;13.95;;
17595;SDS011;8916;47.086;15.920;2023-01-05T08:57:48;23.55;;;15.27;;
17595;SDS011;8916;47.086;15.920;2023-01-05T09:00:19;25.90;;;14.60;;
17595;SDS011;8916;47.086;15.920;2023-01-05T09:02:49;45.17;;;22.92;;
17595;SDS011;8916;47.086;15.920;2023-01-05T09:05:18;41.00;;;21.00;;
17595;SDS011;8916;47.086;15.920;2023-01-05T09:07:48;39.75;;;20.08;;
17595;SDS011;8916;47.086;15.920;2023-01-05T09:10:17;34.78;;;18.05;;
17595;SDS011;8916;47.086;15.920;2023-01-05T09:12:46;31.77;;;15.50;;
17595;SDS011;8916;47.086;15.920;2023-01-05T09:15:16;22.10;;;12.80;;
17595;SDS011;8916;47.086;15.920;2023-01-05T09:17:47;29.38;;;13.65;;
17595;SDS011;8916;47.086;15.920;2023-01-05T09:20:19;25.45;;;13.70;;
17595;SDS011;8916;47.086;15.920;2023-01-05T09:22:52;31.25;;;17.42;;
17595;SDS011;8916;47.086;15.920;2023-01-05T09:25:22;34.83;;;20.35;;
17595;SDS011;8916;47.086;15.920;2023-01-05T09:27:52;50.30;;;20.38;;
17595;SDS011;8916;47.086;15.920;2023-01-05T09:30:21;39.22;;;19.63;;
17595;SDS011;8916;47.086;15.920;2023-01-05T09:32:53;27.38;;;15.77;;
17595;SDS011;8916;47.086;15.920;2023-01-05T09:35:22;26.50;;;13.05;;
17595;SDS011;8916;47.086;15.920;2023-01-05T09:37:52;18.90;;;11.48;;
17595;SDS011;8916;47.086;15.920;2023-01-05T09:40:21;19.50;;;11.70;;
17595;SDS011;8916;47.086;15.920;2023-01-05T09:42:51;21.27;;;12.13;;
17595;SDS011;8916;47.086;15.920;2023-01-05T09:45:23;22.88;;;12.40;;
17595;SDS011;8916;47.086;15.920;2023-01-05T09:47:56;22.95;;;11.95;;
17595;SDS011;8916;47.086;15.920;2023-01-05T09:50:28;20.92;;;12.52;;
17595;SDS011;8916;47.086;15.920;2023-01-05T09:52:58;18.48;;;11.35;;
17595;SDS011;8916;47.086;15.920;2023-01-05T09:55:29;18.55;;;11.15;;
17595;SDS011;8916;47.086;15.920;2023-01-05T09:58:01;16.88;;;11.20;;
17595;SDS011;8916;47.086;15.920;2023-01-05T10:00:35;17.80;;;11.32;;
17595;SDS011;8916;47.086;15.920;2023-01-05T10:03:13;20.63;;;10.70;;
17595;SDS011;8916;47.086;15.920;2023-01-05T10:06:08;16.13;;;10.27;;
17595;SDS011;8916;47.086;15.920;2023-01-05T10:08:43;19.10;;;11.18;;
17595;SDS011;8916;47.086;15.920;2023-01-05T10:11:16;18.42;;;10.63;;
17595;SDS011;8916;47.086;15.920;2023-01-05T10:14:08;17.42;;;10.52;;
17595;SDS011;8916;47.086;15.920;2023-01-05T10:16:43;21.08;;;10.93;;
17595;SDS011;8916;47.086;15.920;2023-01-05T10:19:35;17.38;;;11.23;;
17595;SDS011;8916;47.086;15.920;2023-01-05T10:22:05;20.45;;;11.52;;
17595;SDS011;8916;47.086;15.920;2023-01-05T10:24:50;25.00;;;12.20;;
17595;SDS011;8916;47.086;15.920;2023-01-05T10:27:27;24.65;;;12.38;;
17595;SDS011;8916;47.086;15.920;2023-01-05T10:30:05;21.83;;;11.55;;
17595;SDS011;8916;47.086;15.920;2023-01-05T10:32:50;22.90;;;12.27;;
17595;SDS011;8916;47.086;15.920;2023-01-05T10:35:51;25.23;;;12.75;;
17595;SDS011;8916;47.086;15.920;2023-01-05T10:38:39;22.02;;;13.30;;
17595;SDS011;8916;47.086;15.920;2023-01-05T10:41:20;21.40;;;11.45;;
17595;SDS011;8916;47.086;15.920;2023-01-05T10:44:03;17.85;;;11.23;;
17595;SDS011;8916;47.086;15.920;2023-01-05T10:46:57;17.75;;;10.48;;
17595;SDS011;8916;47.086;15.920;2023-01-05T10:49:27;20.38;;;11.40;;
17595;SDS011;8916;47.086;15.920;2023-01-05T10:52:00;18.25;;;11.02;;
17595;SDS011;8916;47.086;15.920;2023-01-05T10:54:32;17.80;;;10.05;;
17595;SDS011;8916;47.086;15.920;2023-01-05T11:00:11;18.52;;;9.35;;
17595;SDS011;8916;47.086;15.920;2023-01-05T11:02:46;20.00;;;9.63;;
17595;SDS011;8916;47.086;15.920;2023-01-05T11:05:24;16.92;;;8.25;;
17595;SDS011;8916;47.086;15.920;2023-01-05T11:08:03;15.68;;;8.38;;
17595;SDS011;8916;47.086;15.920;2023-01-05T11:10:47;13.90;;;8.32;;
17595;SDS011;8916;47.086;15.920;2023-01-05T11:13:23;15.90;;;8.50;;
17595;SDS011;8916;47.086;15.920;2023-01-05T11:16:00;16.48;;;8.32;;
17595;SDS011;8916;47.086;15.920;2023-01-05T11:18:41;16.20;;;9.10;;
17595;SDS011;8916;47.086;15.920;2023-01-05T11:21:17;15.30;;;8.35;;
17595;SDS011;8916;47.086;15.920;2023-01-05T11:23:50;12.80;;;7.47;;
17595;SDS011;8916;47.086;15.920;2023-01-05T11:26:23;13.45;;;7.88;;
17595;SDS011;8916;47.086;15.920;2023-01-05T11:28:59;13.70;;;8.48;;
17595;SDS011;8916;47.086;15.920;2023-01-05T11:31:48;11.60;;;7.78;;
17595;SDS011;8916;47.086;15.920;2023-01-05T11:37:13;17.15;;;7.75;;
17595;SDS011;8916;47.086;15.920;2023-01-05T11:39:54;14.32;;;8.07;;
17595;SDS011;8916;47.086;15.920;2023-01-05T11:42:27;12.65;;;6.80;;
17595;SDS011;8916;47.086;15.920;2023-01-05T11:45:00;13.00;;;7.07;;
17595;SDS011;8916;47.086;15.920;2023-01-05T11:47:34;10.95;;;7.45;;
17595;SDS011;8916;47.086;15.920;2023-01-05T11:50:15;12.98;;;7.60;;
17595;SDS011;8916;47.086;15.920;2023-01-05T11:52:51;11.93;;;7.70;;
17595;SDS011;8916;47.086;15.920;2023-01-05T11:55:28;11.50;;;7.03;;
17595;SDS011;8916;47.086;15.920;2023-01-05T11:58:11;13.00;;;7.05;;
17595;SDS011;8916;47.086;15.920;2023-01-05T12:01:08;12.77;;;6.95;;
17595;SDS011;8916;47.086;15.920;2023-01-05T12:04:19;14.43;;;6.70;;
17595;SDS011;8916;47.086;15.920;2023-01-05T12:07:04;13.23;;;6.93;;
17595;SDS011;8916;47.086;15.920;2023-01-05T12:09:49;11.23;;;6.35;;
17595;SDS011;8916;47.086;15.920;2023-01-05T12:12:30;13.07;;;7.15;;
17595;SDS011;8916;47.086;15.920;2023-01-05T12:18:35;13.45;;;7.53;;
17595;SDS011;8916;47.086;15.920;2023-01-05T12:21:34;15.20;;;7.53;;
17595;SDS011;8916;47.086;15.920;2023-01-05T12:27:18;11.20;;;7.35;;
17595;SDS011;8916;47.086;15.920;2023-01-05T12:36:36;10.68;;;5.50;;
17595;SDS011;8916;47.086;15.920;2023-01-05T12:39:31;11.50;;;6.38;;
17595;SDS011;8916;47.086;15.920;2023-01-05T12:42:20;13.65;;;7.68;;
17595;SDS011;8916;47.086;15.920;2023-01-05T12:45:22;17.60;;;8.13;;
17595;SDS011;8916;47.086;15.920;2023-01-05T12:48:12;14.88;;;8.18;;
17595;SDS011;8916;47.086;15.920;2023-01-05T12:50:45;13.27;;;7.30;;
17595;SDS011;8916;47.086;15.920;2023-01-05T12:53:22;13.73;;;7.43;;
17595;SDS011;8916;47.086;15.920;2023-01-05T12:56:06;15.77;;;8.38;;
17595;SDS011;8916;47.086;15.920;2023-01-05T12:58:48;14.65;;;7.53;;
17595;SDS011;8916;47.086;15.920;2023-01-05T13:01:37;12.35;;;7.32;;
17595;SDS011;8916;47.086;15.920;2023-01-05T13:04:16;13.98;;;6.82;;
17595;SDS011;8916;47.086;15.920;2023-01-05T13:07:16;13.27;;;7.38;;
17595;SDS011;8916;47.086;15.920;2023-01-05T13:09:55;14.73;;;7.72;;
17595;SDS011;8916;47.086;15.920;2023-01-05T13:12:30;13.27;;;6.93;;
17595;SDS011;8916;47.086;15.920;2023-01-05T13:15:14;10.93;;;6.75;;
17595;SDS011;8916;47.086;15.920;2023-01-05T13:17:49;10.80;;;6.93;;
17595;SDS011;8916;47.086;15.920;2023-01-05T13:20:26;13.10;;;6.53;;
17595;SDS011;8916;47.086;15.920;2023-01-05T13:23:03;13.05;;;6.35;;
17595;SDS011;8916;47.086;15.920;2023-01-05T13:25:42;11.73;;;6.82;;
17595;SDS011;8916;47.086;15.920;2023-01-05T13:28:19;17.92;;;7.45;;
17595;SDS011;8916;47.086;15.920;2023-01-05T13:30:57;11.52;;;6.55;;
17595;SDS011;8916;47.086;15.920;2023-01-05T13:34:12;12.82;;;7.10;;
17595;SDS011;8916;47.086;15.920;2023-01-05T13:37:08;13.83;;;6.50;;
17595;SDS011;8916;47.086;15.920;2023-01-05T13:43:06;17.02;;;9.05;;
17595;SDS011;8916;47.086;15.920;2023-01-05T13:46:05;13.95;;;8.10;;
17595;SDS011;8916;47.086;15.920;2023-01-05T13:49:15;10.82;;;6.60;;
17595;SDS011;8916;47.086;15.920;2023-01-05T13:52:00;13.40;;;7.07;;
17595;SDS011;8916;47.086;15.920;2023-01-05T13:54:33;15.07;;;7.15;;
17595;SDS011;8916;47.086;15.920;2023-01-05T13:57:22;19.45;;;8.93;;
17595;SDS011;8916;47.086;15.920;2023-01-05T13:59:56;19.13;;;8.95;;
17595;SDS011;8916;47.086;15.920;2023-01-05T14:02:40;17.40;;;8.07;;
17595;SDS011;8916;47.086;15.920;2023-01-05T14:05:15;14.10;;;8.15;;
17595;SDS011;8916;47.086;15.920;2023-01-05T14:07:56;13.15;;;8.05;;
17595;SDS011;8916;47.086;15.920;2023-01-05T14:10:30;15.70;;;7.40;;
17595;SDS011;8916;47.086;15.920;2023-01-05T14:13:01;17.67;;;7.88;;
17595;SDS011;8916;47.086;15.920;2023-01-05T14:15:37;15.32;;;6.88;;
17595;SDS011;8916;47.086;15.920;2023-01-05T14:18:10;11.40;;;7.55;;
17595;SDS011;8916;47.086;15.920;2023-01-05T14:20:41;12.25;;;7.63;;
17595;SDS011;8916;47.086;15.920;2023-01-05T14:32:53;9.35;;;6.35;;
17595;SDS011;8916;47.086;15.920;2023-01-05T14:35:29;17.53;;;7.93;;
17595;SDS011;8916;47.086;15.920;2023-01-05T14:38:04;19.30;;;8.95;;
17595;SDS011;8916;47.086;15.920;2023-01-05T14:40:42;19.67;;;11.77;;
17595;SDS011;8916;47.086;15.920;2023-01-05T14:43:20;17.80;;;11.95;;
17595;SDS011;8916;47.086;15.920;2023-01-05T14:46:00;18.13;;;11.00;;
17595;SDS011;8916;47.086;15.920;2023-01-05T14:48:36;15.13;;;8.43;;
17595;SDS011;8916;47.086;15.920;2023-01-05T14:51:20;15.23;;;7.85;;
17595;SDS011;8916;47.086;15.920;2023-01-05T14:53:53;15.40;;;7.78;;
17595;SDS011;8916;47.086;15.920;2023-01-05T14:56:25;12.90;;;7.88;;
17595;SDS011;8916;47.086;15.920;2023-01-05T14:59:12;12.95;;;7.75;;
17595;SDS011;8916;47.086;15.920;2023-01-05T15:01:49;16.25;;;7.00;;
17595;SDS011;8916;47.086;15.920;2023-01-05T15:04:22;14.10;;;7.07;;
17595;SDS011;8916;47.086;15.920;2023-01-05T15:07:02;12.23;;;6.90;;
17595;SDS011;8916;47.086;15.920;2023-01-05T15:13:07;11.18;;;6.28;;
17595;SDS011;8916;47.086;15.920;2023-01-05T15:16:11;9.93;;;6.00;;
17595;SDS011;8916;47.086;15.920;2023-01-05T15:18:53;11.65;;;6.40;;
17595;SDS011;8916;47.086;15.920;2023-01-05T15:21:49;11.00;;;6.25;;
17595;SDS011;8916;47.086;15.920;2023-01-05T15:25:05;16.77;;;9.93;;
17595;SDS011;8916;47.086;15.920;2023-01-05T15:28:10;24.50;;;13.32;;
17595;SDS011;8916;47.086;15.920;2023-01-05T15:31:11;18.05;;;12.05;;
17595;SDS011;8916;47.086;15.920;2023-01-05T15:33:57;19.70;;;9.75;;
17595;SDS011;8916;47.086;15.920;2023-01-05T15:36:40;18.10;;;12.57;;
17595;SDS011;8916;47.086;15.920;2023-01-05T15:41:56;24.58;;;15.70;;
17595;SDS011;8916;47.086;15.920;2023-01-05T15:44:30;14.43;;;8.50;;
17595;SDS011;8916;47.086;15.920;2023-01-05T15:47:06;12.23;;;6.90;;
17595;SDS011;8916;47.086;15.920;2023-01-05T15:49:38;15.30;;;7.57;;
17595;SDS011;8916;47.086;15.920;2023-01-05T15:52:15;14.82;;;9.52;;
17595;SDS011;8916;47.086;15.920;2023-01-05T15:54:58;12.77;;;7.82;;
17595;SDS011;8916;47.086;15.920;2023-01-05T15:57:31;14.50;;;8.18;;
17595;SDS011;8916;47.086;15.920;2023-01-05T16:00:01;11.80;;;7.72;;
17595;SDS011;8916;47.086;15.920;2023-01-05T16:02:42;13.60;;;8.43;;